sensor_id;sensor_type;location;lat;lon;timestamp;pressure;altitude;pressure_sealevel;temperature;humidity
41703;BME280;861;48.808;9.006;2022-09-12T00:01:23;97252.91;;;15.54;79.10
41703;BME280;861;48.808;9.006;2022-09-12T00:03:59;97259.97;;;15.51;78.80
41703;BME280;861;48.808;9.006;2022-09-12T00:06:35;97261.22;;;15.47;79.29
41703;BME280;861;48.808;9.006;2022-09-12T00:09:10;97259.31;;;15.40;79.74
41703;BME280;861;48.808;9.006;2022-09-12T00:11:44;97257.34;;;15.44;79.16
41703;BME280;861;48.808;9.006;2022-09-12T00:14:17;97254.59;;;15.44;79.40
41703;BME280;861;48.808;9.006;2022-09-12T00:16:44;97248.44;;;15.33;80.27
41703;BME280;861;48.808;9.006;2022-09-12T00:19:13;97259.03;;;15.31;79.89
41703;BME280;861;48.808;9.006;2022-09-12T00:21:40;97252.34;;;15.32;79.81
41703;BME280;861;48.808;9.006;2022-09-12T00:24:09;97249.31;;;15.23;80.31
41703;BME280;861;48.808;9.006;2022-09-12T00:26:36;97255.88;;;14.99;81.43
41703;BME280;861;48.808;9.006;2022-09-12T00:29:03;97260.66;;;14.91;81.61
41703;BME280;861;48.808;9.006;2022-09-12T00:31:30;97248.56;;;14.85;81.60
41703;BME280;861;48.808;9.006;2022-09-12T00:33:59;97250.47;;;14.92;81.71
41703;BME280;861;48.808;9.006;2022-09-12T00:36:29;97243.63;;;15.07;81.27
41703;BME280;861;48.808;9.006;2022-09-12T00:38:56;97249.13;;;15.07;81.01
41703;BME280;861;48.808;9.006;2022-09-12T00:41:24;97251.38;;;15.15;79.71
41703;BME280;861;48.808;9.006;2022-09-12T00:47:05;97240.81;;;15.14;79.71
41703;BME280;861;48.808;9.006;2022-09-12T00:49:54;97242.81;;;15.10;80.20
41703;BME280;861;48.808;9.006;2022-09-12T00:52:43;97247.59;;;15.02;79.62
41703;BME280;861;48.808;9.006;2022-09-12T00:55:41;97240.56;;;15.01;80.00
41703;BME280;861;48.808;9.006;2022-09-12T00:58:30;97238.25;;;15.00;80.07
41703;BME280;861;48.808;9.006;2022-09-12T01:01:02;97232.25;;;15.08;78.94
41703;BME280;861;48.808;9.006;2022-09-12T01:03:30;97245.22;;;15.04;79.96
41703;BME280;861;48.808;9.006;2022-09-12T01:09:46;97232.38;;;14.98;79.84
41703;BME280;861;48.808;9.006;2022-09-12T01:12:15;97219.97;;;14.86;81.01
41703;BME280;861;48.808;9.006;2022-09-12T01:14:43;97217.72;;;14.78;81.18
41703;BME280;861;48.808;9.006;2022-09-12T01:17:14;97216.97;;;14.74;80.96
41703;BME280;861;48.808;9.006;2022-09-12T01:26:58;97209.13;;;14.76;80.35
41703;BME280;861;48.808;9.006;2022-09-12T01:30:46;97200.78;;;14.86;79.54
41703;BME280;861;48.808;9.006;2022-09-12T01:34:07;97198.47;;;14.81;79.00
41703;BME280;861;48.808;9.006;2022-09-12T01:43:12;97192.03;;;14.61;80.58
41703;BME280;861;48.808;9.006;2022-09-12T01:46:18;97189.25;;;14.68;80.60
41703;BME280;861;48.808;9.006;2022-09-12T01:49:11;97186.94;;;14.63;80.62
41703;BME280;861;48.808;9.006;2022-09-12T01:52:03;97197.91;;;14.63;80.45
41703;BME280;861;48.808;9.006;2022-09-12T01:54:53;97187.25;;;14.69;80.18
41703;BME280;861;48.808;9.006;2022-09-12T01:57:48;97184.34;;;14.49;80.76
41703;BME280;861;48.808;9.006;2022-09-12T02:00:20;97177.69;;;14.50;80.65
41703;BME280;861;48.808;9.006;2022-09-12T02:03:05;97177.13;;;14.62;79.75
41703;BME280;861;48.808;9.006;2022-09-12T02:05:52;97179.50;;;14.64;79.89
41703;BME280;861;48.808;9.006;2022-09-12T02:08:43;97173.19;;;14.67;79.75
41703;BME280;861;48.808;9.006;2022-09-12T02:11:17;97188.81;;;14.70;79.59
41703;BME280;861;48.808;9.006;2022-09-12T02:14:05;97183.50;;;14.56;80.16
41703;BME280;861;48.808;9.006;2022-09-12T02:16:45;97181.91;;;14.58;80.69
41703;BME280;861;48.808;9.006;2022-09-12T02:19:35;97176.84;;;14.53;80.44
41703;BME280;861;48.808;9.006;2022-09-12T02:22:13;97162.84;;;14.48;80.34
41703;BME280;861;48.808;9.006;2022-09-12T02:24:51;97172.94;;;14.54;80.16
41703;BME280;861;48.808;9.006;2022-09-12T02:28:14;97174.56;;;14.48;80.03
41703;BME280;861;48.808;9.006;2022-09-12T02:31:17;97160.94;;;14.41;80.64
41703;BME280;861;48.808;9.006;2022-09-12T02:35:15;97163.28;;;14.43;80.48
41703;BME280;861;48.808;9.006;2022-09-12T02:40:22;97167.47;;;14.54;80.32
41703;BME280;861;48.808;9.006;2022-09-12T02:42:51;97163.53;;;14.55;79.70
41703;BME280;861;48.808;9.006;2022-09-12T02:45:18;97159.97;;;14.58;79.69
41703;BME280;861;48.808;9.006;2022-09-12T02:47:59;97161.22;;;14.50;80.01
41703;BME280;861;48.808;9.006;2022-09-12T02:50:31;97166.34;;;14.48;80.32
41703;BME280;861;48.808;9.006;2022-09-12T02:53:00;97157.94;;;14.29;80.54
41703;BME280;861;48.808;9.006;2022-09-12T02:55:36;97158.25;;;14.34;81.22
41703;BME280;861;48.808;9.006;2022-09-12T02:58:15;97157.94;;;14.29;81.24
41703;BME280;861;48.808;9.006;2022-09-12T03:01:31;97149.97;;;14.41;80.99
41703;BME280;861;48.808;9.006;2022-09-12T03:04:30;97155.91;;;14.36;81.44
41703;BME280;861;48.808;9.006;2022-09-12T03:21:47;97157.91;;;14.32;79.54
41703;BME280;861;48.808;9.006;2022-09-12T03:24:50;97164.63;;;14.21;80.08
41703;BME280;861;48.808;9.006;2022-09-12T03:27:58;97160.72;;;14.18;80.34
41703;BME280;861;48.808;9.006;2022-09-12T03:30:48;97163.75;;;14.34;79.66
41703;BME280;861;48.808;9.006;2022-09-12T03:33:25;97163.75;;;14.34;78.58
41703;BME280;861;48.808;9.006;2022-09-12T03:35:54;97156.69;;;14.37;78.93
41703;BME280;861;48.808;9.006;2022-09-12T03:38:20;97152.06;;;14.30;78.96
41703;BME280;861;48.808;9.006;2022-09-12T03:40:46;97158.31;;;14.31;78.83
41703;BME280;861;48.808;9.006;2022-09-12T03:43:13;97156.06;;;14.15;79.58
41703;BME280;861;48.808;9.006;2022-09-12T03:45:39;97154.13;;;14.12;79.44
41703;BME280;861;48.808;9.006;2022-09-12T03:48:05;97159.59;;;14.16;79.40
41703;BME280;861;48.808;9.006;2022-09-12T03:50:32;97156.00;;;14.22;78.46
41703;BME280;861;48.808;9.006;2022-09-12T03:52:59;97150.19;;;14.17;79.21
41703;BME280;861;48.808;9.006;2022-09-12T03:55:25;97157.97;;;14.22;79.40
41703;BME280;861;48.808;9.006;2022-09-12T03:57:54;97154.56;;;14.11;79.60
41703;BME280;861;48.808;9.006;2022-09-12T04:00:21;97165.94;;;14.06;80.19
41703;BME280;861;48.808;9.006;2022-09-12T04:02:55;97158.19;;;13.97;80.40
41703;BME280;861;48.808;9.006;2022-09-12T04:05:24;97165.94;;;14.06;79.58
41703;BME280;861;48.808;9.006;2022-09-12T04:07:51;97160.03;;;14.11;79.02
41703;BME280;861;48.808;9.006;2022-09-12T04:10:18;97156.13;;;14.12;79.25
41703;BME280;861;48.808;9.006;2022-09-12T04:12:44;97151.47;;;14.09;79.21
41703;BME280;861;48.808;9.006;2022-09-12T04:15:10;97156.16;;;14.08;79.20
41703;BME280;861;48.808;9.006;2022-09-12T04:17:37;97147.97;;;14.01;79.47
41703;BME280;861;48.808;9.006;2022-09-12T04:20:04;97152.75;;;13.94;79.81
41703;BME280;861;48.808;9.006;2022-09-12T04:22:30;97152.97;;;14.13;78.95
41703;BME280;861;48.808;9.006;2022-09-12T04:24:58;97155.44;;;14.01;79.31
41703;BME280;861;48.808;9.006;2022-09-12T04:27:24;97164.88;;;13.93;79.51
41703;BME280;861;48.808;9.006;2022-09-12T04:29:50;97159.81;;;13.91;79.89
41703;BME280;861;48.808;9.006;2022-09-12T04:32:16;97168.38;;;13.93;79.42
41703;BME280;861;48.808;9.006;2022-09-12T04:34:43;97166.16;;;13.77;80.40
41703;BME280;861;48.808;9.006;2022-09-12T04:37:10;97165.75;;;13.82;80.17
41703;BME280;861;48.808;9.006;2022-09-12T04:39:36;97158.34;;;13.79;79.67
41703;BME280;861;48.808;9.006;2022-09-12T04:42:03;97159.19;;;13.69;80.41
41703;BME280;861;48.808;9.006;2022-09-12T04:44:30;97154.50;;;13.70;80.10
41703;BME280;861;48.808;9.006;2022-09-12T04:46:56;97157.22;;;13.73;79.72
41703;BME280;861;48.808;9.006;2022-09-12T04:49:22;97162.59;;;13.84;79.25
41703;BME280;861;48.808;9.006;2022-09-12T04:51:52;97157.19;;;13.77;79.94
41703;BME280;861;48.808;9.006;2022-09-12T04:54:20;97149.75;;;13.77;79.96
41703;BME280;861;48.808;9.006;2022-09-12T04:56:49;97152.88;;;13.76;79.95
41703;BME280;861;48.808;9.006;2022-09-12T04:59:20;97148.59;;;13.78;80.15
41703;BME280;861;48.808;9.006;2022-09-12T05:01:48;97146.25;;;13.77;80.37
41703;BME280;861;48.808;9.006;2022-09-12T05:04:15;97149.47;;;13.61;81.39
41703;BME280;861;48.808;9.006;2022-09-12T05:06:43;97142.41;;;13.67;80.99
41703;BME280;861;48.808;9.006;2022-09-12T05:09:13;97140.41;;;13.71;80.39
41703;BME280;861;48.808;9.006;2022-09-12T05:11:43;97136.44;;;13.79;80.13
41703;BME280;861;48.808;9.006;2022-09-12T05:14:11;97140.31;;;13.85;80.15
41703;BME280;861;48.808;9.006;2022-09-12T05:16:38;97144.63;;;13.87;79.77
41703;BME280;861;48.808;9.006;2022-09-12T05:19:06;97139.88;;;13.91;79.76
41703;BME280;861;48.808;9.006;2022-09-12T05:21:34;97150.09;;;13.87;79.36
41703;BME280;861;48.808;9.006;2022-09-12T05:24:00;97152.88;;;13.76;79.91
41703;BME280;861;48.808;9.006;2022-09-12T05:26:27;97149.75;;;13.77;79.77
41703;BME280;861;48.808;9.006;2022-09-12T05:28:53;97155.41;;;13.56;81.44
41703;BME280;861;48.808;9.006;2022-09-12T05:31:27;97154.72;;;13.38;82.09
41703;BME280;861;48.808;9.006;2022-09-12T05:33:55;97155.03;;;13.47;81.57
41703;BME280;861;48.808;9.006;2022-09-12T05:36:29;97162.50;;;13.43;81.57
41703;BME280;861;48.808;9.006;2022-09-12T05:38:58;97151.06;;;13.62;80.59
41703;BME280;861;48.808;9.006;2022-09-12T05:41:30;97159.56;;;13.75;80.31
41703;BME280;861;48.808;9.006;2022-09-12T05:44:06;97166.25;;;13.70;80.79
41703;BME280;861;48.808;9.006;2022-09-12T05:46:41;97163.44;;;13.77;80.84
41703;BME280;861;48.808;9.006;2022-09-12T05:49:12;97154.38;;;13.84;80.68
41703;BME280;861;48.808;9.006;2022-09-12T05:51:44;97157.16;;;13.80;81.38
41703;BME280;861;48.808;9.006;2022-09-12T05:54:16;97154.41;;;13.80;81.73
41703;BME280;861;48.808;9.006;2022-09-12T05:56:45;97157.09;;;13.88;81.83
41703;BME280;861;48.808;9.006;2022-09-12T05:59:20;97154.28;;;13.98;81.64
41703;BME280;861;48.808;9.006;2022-09-12T06:01:47;97163.19;;;14.06;81.09
41703;BME280;861;48.808;9.006;2022-09-12T06:04:15;97152.22;;;14.09;81.32
41703;BME280;861;48.808;9.006;2022-09-12T06:06:44;97151.88;;;14.07;81.79
41703;BME280;861;48.808;9.006;2022-09-12T06:09:14;97155.31;;;14.15;81.60
41703;BME280;861;48.808;9.006;2022-09-12T06:11:43;97158.34;;;14.24;80.37
41703;BME280;861;48.808;9.006;2022-09-12T06:14:16;97155.59;;;14.27;81.21
41703;BME280;861;48.808;9.006;2022-09-12T06:16:43;97161.50;;;14.22;81.64
41703;BME280;861;48.808;9.006;2022-09-12T06:19:20;97160.25;;;14.34;81.51
41703;BME280;861;48.808;9.006;2022-09-12T06:21:49;97151.69;;;14.28;81.70
41703;BME280;861;48.808;9.006;2022-09-12T06:24:19;97155.19;;;14.32;82.69
41703;BME280;861;48.808;9.006;2022-09-12T06:26:49;97157.78;;;14.43;82.04
41703;BME280;861;48.808;9.006;2022-09-12T06:29:18;97157.75;;;14.46;83.01
41703;BME280;861;48.808;9.006;2022-09-12T06:31:45;97155.38;;;14.48;83.08
41703;BME280;861;48.808;9.006;2022-09-12T06:34:14;97158.63;;;14.40;83.23
41703;BME280;861;48.808;9.006;2022-09-12T06:36:46;97149.06;;;14.51;83.36
41703;BME280;861;48.808;9.006;2022-09-12T06:39:21;97153.59;;;14.68;82.65
41703;BME280;861;48.808;9.006;2022-09-12T06:41:51;97155.03;;;14.80;82.51
41703;BME280;861;48.808;9.006;2022-09-12T06:44:21;97158.00;;;14.92;81.56
41703;BME280;861;48.808;9.006;2022-09-12T06:46:49;97157.94;;;14.99;81.68
41703;BME280;861;48.808;9.006;2022-09-12T06:49:16;97160.97;;;15.05;82.06
41703;BME280;861;48.808;9.006;2022-09-12T06:51:42;97159.44;;;15.04;82.84
41703;BME280;861;48.808;9.006;2022-09-12T06:54:14;97151.84;;;15.15;82.13
41703;BME280;861;48.808;9.006;2022-09-12T06:56:42;97154.81;;;15.27;82.26
41703;BME280;861;48.808;9.006;2022-09-12T06:59:09;97160.97;;;15.39;81.77
41703;BME280;861;48.808;9.006;2022-09-12T07:01:35;97162.72;;;15.52;81.94
41703;BME280;861;48.808;9.006;2022-09-12T07:04:03;97156.72;;;15.61;81.95
41703;BME280;861;48.808;9.006;2022-09-12T07:06:38;97158.06;;;15.76;81.72
41703;BME280;861;48.808;9.006;2022-09-12T07:09:12;97159.19;;;15.78;82.16
41703;BME280;861;48.808;9.006;2022-09-12T07:11:44;97153.09;;;15.90;81.46
41703;BME280;861;48.808;9.006;2022-09-12T07:14:13;97154.91;;;16.00;82.33
41703;BME280;861;48.808;9.006;2022-09-12T07:16:40;97158.72;;;16.06;81.48
41703;BME280;861;48.808;9.006;2022-09-12T07:19:07;97162.66;;;16.28;81.09
41703;BME280;861;48.808;9.006;2022-09-12T07:21:35;97161.88;;;16.28;81.83
41703;BME280;861;48.808;9.006;2022-09-12T07:24:05;97161.19;;;16.24;82.91
41703;BME280;861;48.808;9.006;2022-09-12T07:26:31;97153.09;;;16.36;82.96
41703;BME280;861;48.808;9.006;2022-09-12T07:28:58;97149.84;;;16.45;82.79
41703;BME280;861;48.808;9.006;2022-09-12T07:31:27;97149.16;;;16.60;82.58
41703;BME280;861;48.808;9.006;2022-09-12T07:33:54;97146.06;;;16.78;81.88
41703;BME280;861;48.808;9.006;2022-09-12T07:36:23;97142.25;;;16.92;80.78
41703;BME280;861;48.808;9.006;2022-09-12T07:38:57;97152.47;;;17.11;80.40
41703;BME280;861;48.808;9.006;2022-09-12T07:41:30;97150.25;;;17.22;80.24
41703;BME280;861;48.808;9.006;2022-09-12T07:44:01;97146.16;;;17.30;80.69
41703;BME280;861;48.808;9.006;2022-09-12T07:46:30;97140.84;;;17.39;78.95
41703;BME280;861;48.808;9.006;2022-09-12T07:48:59;97148.19;;;17.45;79.44
41703;BME280;861;48.808;9.006;2022-09-12T07:51:29;97152.53;;;17.62;77.75
41703;BME280;861;48.808;9.006;2022-09-12T07:53:57;97138.50;;;17.73;77.47
41703;BME280;861;48.808;9.006;2022-09-12T07:56:26;97138.41;;;17.92;77.08
41703;BME280;861;48.808;9.006;2022-09-12T07:58:55;97138.84;;;18.07;76.80
41703;BME280;861;48.808;9.006;2022-09-12T08:01:22;97146.06;;;18.17;75.90
41703;BME280;861;48.808;9.006;2022-09-12T08:03:58;97147.56;;;18.21;75.56
41703;BME280;861;48.808;9.006;2022-09-12T08:06:28;97138.47;;;18.37;75.29
41703;BME280;861;48.808;9.006;2022-09-12T08:08:58;97138.78;;;18.55;74.15
41703;BME280;861;48.808;9.006;2022-09-12T08:11:28;97146.81;;;18.66;73.54
41703;BME280;861;48.808;9.006;2022-09-12T08:13:56;97141.41;;;18.75;73.39
41703;BME280;861;48.808;9.006;2022-09-12T08:16:28;97137.47;;;18.88;72.66
41703;BME280;861;48.808;9.006;2022-09-12T08:18:59;97145.34;;;19.02;72.17
41703;BME280;861;48.808;9.006;2022-09-12T08:21:31;97136.78;;;19.13;71.77
41703;BME280;861;48.808;9.006;2022-09-12T08:24:05;97144.31;;;19.25;74.30
41703;BME280;861;48.808;9.006;2022-09-12T08:26:33;97137.94;;;19.40;74.54
41703;BME280;861;48.808;9.006;2022-09-12T08:29:00;97143.81;;;19.55;74.82
41703;BME280;861;48.808;9.006;2022-09-12T08:31:27;97140.28;;;19.67;74.02
41703;BME280;861;48.808;9.006;2022-09-12T08:33:57;97140.06;;;19.87;72.86
41703;BME280;861;48.808;9.006;2022-09-12T08:36:28;97138.72;;;20.16;69.12
41703;BME280;861;48.808;9.006;2022-09-12T08:39:06;97145.78;;;20.17;70.34
41703;BME280;861;48.808;9.006;2022-09-12T08:41:48;97136.03;;;20.13;72.80
41703;BME280;861;48.808;9.006;2022-09-12T08:45:15;97131.47;;;20.31;71.00
41703;BME280;861;48.808;9.006;2022-09-12T08:47:48;97135.88;;;20.41;69.17
41703;BME280;861;48.808;9.006;2022-09-12T08:50:21;97134.22;;;20.31;69.91
41703;BME280;861;48.808;9.006;2022-09-12T08:53:03;97141.19;;;20.48;69.87
41703;BME280;861;48.808;9.006;2022-09-12T08:55:57;97126.91;;;20.93;65.93
41703;BME280;861;48.808;9.006;2022-09-12T08:58:28;97130.41;;;21.06;68.35
41703;BME280;861;48.808;9.006;2022-09-12T09:01:33;97129.25;;;21.16;68.25
41703;BME280;861;48.808;9.006;2022-09-12T09:04:34;97125.63;;;21.28;68.52
41703;BME280;861;48.808;9.006;2022-09-12T09:18:21;97125.19;;;21.69;64.27
41703;BME280;861;48.808;9.006;2022-09-12T09:21:08;97125.00;;;21.94;64.67
41703;BME280;861;48.808;9.006;2022-09-12T09:24:01;97126.41;;;22.08;60.44
41703;BME280;861;48.808;9.006;2022-09-12T09:26:55;97117.50;;;22.13;60.62
41703;BME280;861;48.808;9.006;2022-09-12T09:29:46;97114.91;;;22.27;60.47
41703;BME280;861;48.808;9.006;2022-09-12T09:32:36;97120.63;;;22.51;60.30
41703;BME280;861;48.808;9.006;2022-09-12T09:35:44;97115.59;;;22.77;55.28
41703;BME280;861;48.808;9.006;2022-09-12T09:38:44;97124.53;;;22.90;56.55
41703;BME280;861;48.808;9.006;2022-09-12T09:44:58;97135.75;;;23.31;53.33
41703;BME280;861;48.808;9.006;2022-09-12T09:47:28;97126.44;;;23.43;55.78
41703;BME280;861;48.808;9.006;2022-09-12T09:49:54;97131.72;;;23.41;55.40
41703;BME280;861;48.808;9.006;2022-09-12T09:52:29;97124.31;;;23.38;54.47
41703;BME280;861;48.808;9.006;2022-09-12T09:55:00;97121.81;;;23.49;57.70
41703;BME280;861;48.808;9.006;2022-09-12T10:00:32;97115.84;;;23.74;54.64
41703;BME280;861;48.808;9.006;2022-09-12T10:05:52;97114.06;;;23.86;51.59
41703;BME280;861;48.808;9.006;2022-09-12T10:08:44;97119.75;;;24.00;50.36
41703;BME280;861;48.808;9.006;2022-09-12T10:11:22;97119.16;;;23.96;51.70
41703;BME280;861;48.808;9.006;2022-09-12T10:13:57;97115.97;;;24.13;53.30
41703;BME280;861;48.808;9.006;2022-09-12T10:16:50;97111.06;;;24.31;49.71
41703;BME280;861;48.808;9.006;2022-09-12T10:19:36;97107.00;;;24.56;50.77
41703;BME280;861;48.808;9.006;2022-09-12T10:22:19;97110.91;;;24.73;51.27
41703;BME280;861;48.808;9.006;2022-09-12T10:24:59;97110.09;;;24.96;51.99
41703;BME280;861;48.808;9.006;2022-09-12T10:27:32;97107.69;;;25.03;49.93
41703;BME280;861;48.808;9.006;2022-09-12T10:30:19;97104.72;;;25.21;50.35
41703;BME280;861;48.808;9.006;2022-09-12T10:32:50;97110.47;;;25.32;48.09
41703;BME280;861;48.808;9.006;2022-09-12T10:35:27;97109.53;;;25.50;50.81
41703;BME280;861;48.808;9.006;2022-09-12T10:38:00;97106.25;;;25.66;48.84
41703;BME280;861;48.808;9.006;2022-09-12T10:40:37;97107.69;;;25.76;47.15
41703;BME280;861;48.808;9.006;2022-09-12T10:46:20;97088.03;;;26.00;46.91
41703;BME280;861;48.808;9.006;2022-09-12T10:51:50;97101.66;;;26.12;47.25
41703;BME280;861;48.808;9.006;2022-09-12T10:54:22;97093.06;;;26.16;46.97
41703;BME280;861;48.808;9.006;2022-09-12T10:57:26;97092.59;;;26.17;45.33
41703;BME280;861;48.808;9.006;2022-09-12T11:00:10;97085.63;;;26.47;47.47
41703;BME280;861;48.808;9.006;2022-09-12T11:03:14;97080.44;;;26.40;45.56
41703;BME280;861;48.808;9.006;2022-09-12T11:05:58;97079.53;;;26.09;45.62
41703;BME280;861;48.808;9.006;2022-09-12T11:09:06;97074.09;;;26.20;45.21
41703;BME280;861;48.808;9.006;2022-09-12T11:21:14;97044.53;;;26.99;44.39
41703;BME280;861;48.808;9.006;2022-09-12T11:24:22;97051.66;;;27.00;45.18
41703;BME280;861;48.808;9.006;2022-09-12T11:27:22;97055.84;;;27.16;44.38
41703;BME280;861;48.808;9.006;2022-09-12T11:30:13;97054.59;;;27.42;43.84
41703;BME280;861;48.808;9.006;2022-09-12T11:33:01;97055.53;;;27.65;42.65
41703;BME280;861;48.808;9.006;2022-09-12T11:36:06;97048.44;;;27.69;42.13
41703;BME280;861;48.808;9.006;2022-09-12T11:41:57;97047.06;;;27.90;42.57
41703;BME280;861;48.808;9.006;2022-09-12T11:44:39;97041.38;;;28.21;39.24
41703;BME280;861;48.808;9.006;2022-09-12T11:47:13;97048.66;;;28.02;41.92
41703;BME280;861;48.808;9.006;2022-09-12T11:49:48;97039.06;;;28.14;42.60
41703;BME280;861;48.808;9.006;2022-09-12T11:52:24;97034.16;;;28.04;39.82
41703;BME280;861;48.808;9.006;2022-09-12T11:55:15;97035.38;;;27.97;39.81
41703;BME280;861;48.808;9.006;2022-09-12T11:57:58;97033.69;;;28.11;39.36
41703;BME280;861;48.808;9.006;2022-09-12T12:00:41;97031.91;;;28.13;38.34
41703;BME280;861;48.808;9.006;2022-09-12T12:03:44;97041.06;;;28.08;40.92
41703;BME280;861;48.808;9.006;2022-09-12T12:06:27;97036.88;;;28.40;39.82
41703;BME280;861;48.808;9.006;2022-09-12T12:08:58;97029.06;;;28.61;40.75
41703;BME280;861;48.808;9.006;2022-09-12T12:11:36;97026.84;;;28.93;39.17
41703;BME280;861;48.808;9.006;2022-09-12T12:14:20;97021.03;;;29.07;39.79
41703;BME280;861;48.808;9.006;2022-09-12T12:16:53;97024.09;;;29.20;39.60
41703;BME280;861;48.808;9.006;2022-09-12T12:19:35;97027.94;;;29.34;40.25
41703;BME280;861;48.808;9.006;2022-09-12T12:22:23;97007.53;;;29.39;38.74
41703;BME280;861;48.808;9.006;2022-09-12T12:25:20;97011.31;;;29.58;39.60
41703;BME280;861;48.808;9.006;2022-09-12T12:28:00;97015.41;;;29.62;37.23
41703;BME280;861;48.808;9.006;2022-09-12T12:36:05;97003.91;;;29.55;37.54
41703;BME280;861;48.808;9.006;2022-09-12T12:38:37;97005.19;;;29.70;38.57
41703;BME280;861;48.808;9.006;2022-09-12T12:43:52;96997.19;;;30.08;37.79
41703;BME280;861;48.808;9.006;2022-09-12T12:46:28;96997.16;;;30.13;37.94
41703;BME280;861;48.808;9.006;2022-09-12T12:49:08;96989.47;;;30.25;37.89
41703;BME280;861;48.808;9.006;2022-09-12T12:52:01;96985.25;;;30.48;38.27
41703;BME280;861;48.808;9.006;2022-09-12T12:58:17;96986.09;;;30.83;38.91
41703;BME280;861;48.808;9.006;2022-09-12T13:00:33;96979.34;;;30.97;36.77
41703;BME280;861;48.808;9.006;2022-09-12T13:05:45;96975.16;;;30.74;36.31
41703;BME280;861;48.808;9.006;2022-09-12T13:11:29;96963.84;;;30.85;39.49
41703;BME280;861;48.808;9.006;2022-09-12T13:14:49;96965.19;;;31.08;37.13
41703;BME280;861;48.808;9.006;2022-09-12T13:17:33;96960.25;;;31.20;37.94
41703;BME280;861;48.808;9.006;2022-09-12T13:20:17;96955.09;;;31.24;35.58
41703;BME280;861;48.808;9.006;2022-09-12T13:22:50;96953.19;;;31.08;35.63
41703;BME280;861;48.808;9.006;2022-09-12T13:28:16;96961.00;;;30.91;36.16
41703;BME280;861;48.808;9.006;2022-09-12T13:39:27;96941.53;;;31.22;34.89
41703;BME280;861;48.808;9.006;2022-09-12T13:42:45;96939.19;;;31.26;37.55
41703;BME280;861;48.808;9.006;2022-09-12T13:45:04;96933.69;;;31.45;35.25
41703;BME280;861;48.808;9.006;2022-09-12T13:47:44;96929.88;;;31.67;35.99
41703;BME280;861;48.808;9.006;2022-09-12T13:50:32;96930.50;;;31.54;36.14
41703;BME280;861;48.808;9.006;2022-09-12T13:53:18;96933.38;;;31.73;34.25
41703;BME280;861;48.808;9.006;2022-09-12T13:55:58;96929.28;;;31.50;35.48
41703;BME280;861;48.808;9.006;2022-09-12T13:58:33;96926.69;;;31.76;35.30
41703;BME280;861;48.808;9.006;2022-09-12T14:01:41;96933.66;;;31.69;33.25
41703;BME280;861;48.808;9.006;2022-09-12T14:08:13;96918.59;;;31.43;33.49
41703;BME280;861;48.808;9.006;2022-09-12T14:10:45;96916.84;;;31.40;33.58
41703;BME280;861;48.808;9.006;2022-09-12T14:13:23;96905.53;;;31.45;34.86
41703;BME280;861;48.808;9.006;2022-09-12T14:15:55;96905.34;;;31.62;35.10
41703;BME280;861;48.808;9.006;2022-09-12T14:18:38;96903.53;;;31.64;34.17
41703;BME280;861;48.808;9.006;2022-09-12T14:21:37;96915.50;;;31.70;33.54
41703;BME280;861;48.808;9.006;2022-09-12T14:24:08;96906.38;;;31.35;33.02
41703;BME280;861;48.808;9.006;2022-09-12T14:26:42;96905.69;;;30.99;33.66
41703;BME280;861;48.808;9.006;2022-09-12T14:29:16;96902.34;;;30.65;33.41
41703;BME280;861;48.808;9.006;2022-09-12T14:31:43;96891.78;;;30.82;35.67
41703;BME280;861;48.808;9.006;2022-09-12T14:34:18;96899.00;;;31.02;36.63
41703;BME280;861;48.808;9.006;2022-09-12T14:36:51;96890.56;;;31.02;36.89
41703;BME280;861;48.808;9.006;2022-09-12T14:39:40;96891.38;;;30.97;34.93
41703;BME280;861;48.808;9.006;2022-09-12T14:42:23;96889.78;;;31.01;35.26
41703;BME280;861;48.808;9.006;2022-09-12T14:45:02;96892.47;;;30.53;34.42
41703;BME280;861;48.808;9.006;2022-09-12T14:47:42;96890.09;;;30.63;33.40
41703;BME280;861;48.808;9.006;2022-09-12T14:50:25;96892.22;;;30.51;34.27
41703;BME280;861;48.808;9.006;2022-09-12T14:53:31;96878.97;;;30.46;35.14
41703;BME280;861;48.808;9.006;2022-09-12T14:56:11;96885.03;;;30.21;34.08
41703;BME280;861;48.808;9.006;2022-09-12T14:58:40;96892.97;;;30.06;33.54
41703;BME280;861;48.808;9.006;2022-09-12T15:03:52;96885.50;;;29.67;35.20
41703;BME280;861;48.808;9.006;2022-09-12T15:06:34;96876.13;;;29.48;36.65
41703;BME280;861;48.808;9.006;2022-09-12T15:09:11;96884.78;;;29.45;36.20
41703;BME280;861;48.808;9.006;2022-09-12T15:11:39;96881.94;;;29.56;36.28
41703;BME280;861;48.808;9.006;2022-09-12T15:14:15;96877.84;;;29.73;35.78
41703;BME280;861;48.808;9.006;2022-09-12T15:16:42;96865.75;;;29.89;36.01
41703;BME280;861;48.808;9.006;2022-09-12T15:19:09;96872.84;;;29.96;35.76
41703;BME280;861;48.808;9.006;2022-09-12T15:21:35;96872.13;;;29.96;38.97
41703;BME280;861;48.808;9.006;2022-09-12T15:24:02;96870.00;;;30.07;35.81
41703;BME280;861;48.808;9.006;2022-09-12T15:26:30;96869.78;;;30.00;34.50
41703;BME280;861;48.808;9.006;2022-09-12T15:28:57;96862.88;;;30.01;35.03
41703;BME280;861;48.808;9.006;2022-09-12T15:31:30;96861.63;;;30.02;35.26
41703;BME280;861;48.808;9.006;2022-09-12T15:34:00;96865.06;;;29.78;35.74
41703;BME280;861;48.808;9.006;2022-09-12T15:36:28;96859.97;;;29.60;34.93
41703;BME280;861;48.808;9.006;2022-09-12T15:38:55;96862.88;;;29.43;35.20
41703;BME280;861;48.808;9.006;2022-09-12T15:41:31;96862.91;;;29.27;35.66
41703;BME280;861;48.808;9.006;2022-09-12T15:44:04;96860.63;;;29.14;37.13
41703;BME280;861;48.808;9.006;2022-09-12T15:46:33;96857.81;;;29.03;34.91
41703;BME280;861;48.808;9.006;2022-09-12T15:49:00;96852.75;;;28.80;34.68
41703;BME280;861;48.808;9.006;2022-09-12T15:51:26;96846.13;;;28.61;36.84
41703;BME280;861;48.808;9.006;2022-09-12T15:53:53;96848.41;;;28.45;35.79
41703;BME280;861;48.808;9.006;2022-09-12T15:56:21;96843.81;;;28.31;36.65
41703;BME280;861;48.808;9.006;2022-09-12T15:58:48;96842.25;;;28.19;37.25
41703;BME280;861;48.808;9.006;2022-09-12T16:01:17;96841.47;;;28.08;37.43
41703;BME280;861;48.808;9.006;2022-09-12T16:03:46;96838.59;;;27.86;37.78
41703;BME280;861;48.808;9.006;2022-09-12T16:06:12;96845.91;;;27.72;39.11